ADDS METAR Data INFO
IDs: Format: Raw Decoded Include TAF

Data at: 2104 UTC 19 Jul 2018

KDVK 192055Z AUTO 00000KT 10SM CLR 30/15 A3000 RMK AO2
KDVK 192035Z AUTO 00000KT 10SM CLR 29/13 A3000 RMK AO2
KDVK 192015Z AUTO 04003KT 10SM CLR 29/14 A3001 RMK AO2
KDVK 191955Z AUTO 10004KT 10SM CLR 28/14 A3001 RMK AO2
KDVK 191935Z AUTO 22005KT 10SM CLR 28/14 A3002 RMK AO2
KDVK 191915Z AUTO 00000KT 10SM CLR 28/13 A3002 RMK AO2
KDVK 191855Z AUTO 18004KT 10SM CLR 30/15 A3002 RMK AO2
KDVK 191835Z AUTO 08005KT 10SM CLR 28/14 A3002 RMK AO2
KDVK 191815Z AUTO 07005KT 10SM CLR 28/15 A3002 RMK AO2
KDVK 191755Z AUTO 17004KT 10SM CLR 28/13 A3002 RMK AO2
KDVK 191735Z AUTO 11003KT 10SM CLR 27/13 A3003 RMK AO2
KDVK 191715Z AUTO 08004KT 10SM CLR 27/14 A3004 RMK AO2
KDVK 191655Z AUTO 13005KT 10SM CLR 27/13 A3004 RMK AO2
KDVK 191635Z AUTO 11006KT 10SM CLR 27/12 A3005 RMK AO2
KDVK 191615Z AUTO 10006KT 10SM CLR 27/13 A3004 RMK AO2
KDVK 191555Z AUTO 12005KT 10SM CLR 26/14 A3005 RMK AO2
KDVK 191535Z AUTO 08009KT 10SM CLR 26/15 A3005 RMK AO2
KDVK 191515Z AUTO 11004KT 10SM CLR 25/15 A3005 RMK AO2
KDVK 191455Z AUTO 13006KT 10SM CLR 25/15 A3006 RMK AO2
KDVK 191435Z AUTO 11005KT 10SM CLR 25/15 A3006 RMK AO2
KDVK 191415Z AUTO 11005KT 10SM CLR 24/15 A3006 RMK AO2
KDVK 191355Z AUTO 11004KT 10SM CLR 23/16 A3006 RMK AO2
KDVK 191335Z AUTO 15003KT 10SM CLR 22/16 A3007 RMK AO2
KDVK 191315Z AUTO 14003KT 10SM CLR 22/16 A3006 RMK AO2
KDVK 191255Z AUTO 00000KT 10SM CLR 21/16 A3006 RMK AO2
KDVK 191235Z AUTO 14003KT 10SM CLR 20/16 A3006 RMK AO2
KDVK 191215Z AUTO 00000KT 10SM CLR 20/16 A3006 RMK AO2
KDVK 191155Z AUTO 00000KT 10SM CLR 17/16 A3005 RMK AO2
KDVK 191135Z AUTO 00000KT 10SM CLR 15/15 A3005 RMK AO2
KDVK 191115Z AUTO 00000KT 10SM CLR 15/14 A3005 RMK AO2
KDVK 191055Z AUTO 00000KT 10SM CLR 15/14 A3005 RMK AO2
KDVK 191035Z AUTO 00000KT 7SM CLR 15/14 A3005 RMK AO2
KDVK 191015Z AUTO 00000KT 10SM CLR 15/14 A3004 RMK AO2
KDVK 190955Z AUTO 00000KT 4SM BR CLR 15/14 A3003 RMK AO2
KDVK 190935Z AUTO 00000KT 10SM CLR 15/14 A3004 RMK AO2
KDVK 190915Z AUTO 00000KT 4SM BR CLR 16/15 A3004 RMK AO2
KDVK 190855Z AUTO 00000KT 2 1/2SM BR CLR 15/15 A3003 RMK AO2 VIS 1/2V5
KDVK 190835Z AUTO 00000KT 7SM CLR 15/15 A3003 RMK AO2
KDVK 190815Z AUTO 00000KT 1 3/4SM BR SCT002 16/15 A3003 RMK AO2
KDVK 190755Z AUTO 00000KT 1/2SM FG BKN002 16/15 A3003 RMK AO2
KDVK 190735Z AUTO 00000KT 7SM CLR 16/16 A3004 RMK AO2
KDVK 190715Z AUTO 00000KT 5SM BR CLR 16/16 A3004 RMK AO2
KDVK 190655Z AUTO 00000KT 5SM BR CLR 16/15 A3004 RMK AO2
KDVK 190635Z AUTO 00000KT 10SM CLR 16/16 A3004 RMK AO2
KDVK 190615Z AUTO 00000KT 10SM CLR 16/16 A3005 RMK AO2
KDVK 190555Z AUTO 00000KT 10SM CLR 16/16 A3005 RMK AO2
KDVK 190535Z AUTO 00000KT 10SM CLR 17/16 A3005 RMK AO2
KDVK 190515Z AUTO 00000KT 10SM CLR 17/16 A3005 RMK AO2
KDVK 190455Z AUTO 00000KT 10SM CLR 17/16 A3005 RMK AO2
KDVK 190435Z AUTO 00000KT 10SM CLR 18/17 A3005 RMK AO2
KDVK 190415Z AUTO 00000KT 10SM CLR 18/17 A3004 RMK AO2
KDVK 190355Z AUTO 00000KT 10SM CLR 18/17 A3004 RMK AO2
KDVK 190335Z AUTO 00000KT 10SM CLR 19/17 A3004 RMK AO2
KDVK 190315Z AUTO 00000KT 10SM SCT060 19/17 A3004 RMK AO2
KDVK 190255Z AUTO 00000KT 10SM CLR 20/17 A3004 RMK AO2
KDVK 190235Z AUTO 00000KT 10SM CLR 21/17 A3003 RMK AO2
KDVK 190215Z AUTO 00000KT 10SM CLR 20/17 A3003 RMK AO2
KDVK 190155Z AUTO 00000KT 10SM SCT060 22/17 A3002 RMK AO2
KDVK 190135Z AUTO 00000KT 10SM SCT060 22/16 A3002 RMK AO2
KDVK 190115Z AUTO 00000KT 10SM CLR 22/17 A3002 RMK AO2
KDVK 190055Z AUTO 00000KT 10SM CLR 23/16 A3002 RMK AO2
KDVK 190035Z AUTO 00000KT 10SM CLR 25/16 A3002 RMK AO2
KDVK 190015Z AUTO 00000KT 10SM CLR 26/16 A3002 RMK AO2
KDVK 182355Z AUTO 00000KT 10SM CLR 26/15 A3001 RMK AO2
KDVK 182335Z AUTO 00000KT 10SM CLR 27/15 A3002 RMK AO2
KDVK 182315Z AUTO 07003KT 10SM CLR 27/15 A3001 RMK AO2
KDVK 182255Z AUTO 11004KT 10SM CLR 28/14 A3002 RMK AO2
KDVK 182235Z AUTO 10005KT 10SM CLR 28/15 A3002 RMK AO2
KDVK 182215Z AUTO 03004KT 10SM SCT060 28/15 A3002 RMK AO2
KDVK 182155Z AUTO 07004KT 10SM BKN060 28/13 A3002 RMK AO2
KDVK 182135Z AUTO 04003KT 10SM BKN060 28/14 A3002 RMK AO2
KDVK 182115Z AUTO 02004KT 10SM BKN060 27/15 A3002 RMK AO2
KDVK 182055Z AUTO 06003KT 10SM BKN060 27/15 A3003 RMK AO2
KDVK 182035Z AUTO 35004KT 10SM SCT060 30/14 A3003 RMK AO2
KDVK 182015Z AUTO 02005KT 10SM SCT050 28/15 A3004 RMK AO2
KDVK 181955Z AUTO 09003KT 10SM SCT050 28/15 A3005 RMK AO2
KDVK 181935Z AUTO 07005KT 10SM SCT050 28/16 A3005 RMK AO2
KDVK 181915Z AUTO 07003KT 10SM SCT050 28/16 A3006 RMK AO2
KDVK 181855Z AUTO 06005KT 10SM SCT050 28/16 A3006 RMK AO2
KDVK 181835Z AUTO 04006KT 10SM SCT050 27/15 A3007 RMK AO2
KDVK 181815Z AUTO 05005KT 10SM BKN050 BKN060 27/16 A3007 RMK AO2
KDVK 181755Z AUTO 06003KT 10SM SCT050 SCT060 27/15 A3007 RMK AO2
KDVK 181735Z AUTO 00000KT 10SM SCT050 28/15 A3007 RMK AO2
KDVK 181715Z AUTO 06006KT 10SM SCT050 28/15 A3007 RMK AO2
KDVK 181655Z AUTO 00000KT 10SM CLR 27/15 A3007 RMK AO2
KDVK 181635Z AUTO 06005KT 10SM CLR 27/15 A3008 RMK AO2
KDVK 181615Z AUTO 05004KT 10SM CLR 27/15 A3009 RMK AO2
KDVK 181555Z AUTO 07003KT 10SM CLR 27/15 A3009 RMK AO2
KDVK 181535Z AUTO 03003KT 10SM CLR 27/15 A3009 RMK AO2
KDVK 181515Z AUTO 00000KT 10SM CLR 27/16 A3009 RMK AO2
KDVK 181455Z AUTO 08004KT 10SM CLR 26/15 A3008 RMK AO2
KDVK 181435Z AUTO 04003KT 10SM CLR 26/16 A3008 RMK AO2
KDVK 181415Z AUTO 05003KT 10SM CLR 25/16 A3009 RMK AO2
KDVK 181355Z AUTO 05003KT 10SM CLR 25/16 A3010 RMK AO2
KDVK 181335Z AUTO 00000KT 10SM CLR 23/16 A3010 RMK AO2
KDVK 181315Z AUTO 04003KT 10SM CLR 23/16 A3010 RMK AO2
KDVK 181255Z AUTO 01003KT 10SM CLR 22/16 A3009 RMK AO2
KDVK 181235Z AUTO 01003KT 10SM CLR 21/17 A3009 RMK AO2
KDVK 181215Z AUTO 36004KT 10SM CLR 20/16 A3009 RMK AO2
KDVK 181155Z AUTO 35004KT 10SM CLR 19/16 A3008 RMK AO2
KDVK 181135Z AUTO 00000KT 10SM CLR 18/16 A3007 RMK AO2
KDVK 181115Z AUTO 34003KT 10SM CLR 17/15 A3007 RMK AO2
KDVK 181055Z AUTO 00000KT 10SM CLR 17/15 A3007 RMK AO2
KDVK 181035Z AUTO 00000KT 10SM CLR 17/15 A3006 RMK AO2
KDVK 181015Z AUTO 34003KT 10SM CLR 17/15 A3006 RMK AO2
KDVK 180955Z AUTO 00000KT 10SM CLR 17/15 A3006 RMK AO2
KDVK 180935Z AUTO 00000KT 10SM CLR 17/15 A3006 RMK AO2
KDVK 180915Z AUTO 00000KT 10SM CLR 17/15 A3005 RMK AO2